首页
METAR-TAF:

METAR-TAF

机场 :

佛罗伦萨-佩雷托拉机场

佛罗伦萨, 意大利

纬度: 43-48N, 经度: 011-12E, 海拔: 40米

当前天气观测

该预报发布于27分钟前的05:20 UTC
风速1节,风向多变
温度 8°C
湿度 87%
气压 1030 hPa
能见度10公里或以上
多云层高于2500英尺

METAR: LIRQ 230520Z VRB01KT 9999 BKN025 08/06 Q1030

时间: 06:47 (05:47 UTC)

预报

该预报发布于47分钟前的05:00 UTC
预报有效从23日的 06点(UTC)到 24日的 06点(UTC)
风速5节,风向多变
能見度: 4000
少量云层高于1500英尺
轻雾
成为
从 23日的 08点(UTC)到 23日的 10点(UTC)
能見度: 7000
成为
从 23日的 09点(UTC)到 23日的 11点(UTC)
风速10节,风向西转西南
成为
从 23日的 18点(UTC)到 23日的 20点(UTC)
风速5节,风向多变
成为
从 23日的 22点(UTC)到 23日的 24点(UTC)
能見度: 4000
轻雾
短暂存在
从 24日的 01点(UTC)到 24日的 06点(UTC)
能見度: 1200
多云层高于1000英尺
碎片雾

TAF: LIRQ 230500Z 2306/2406 VRB05KT 4000 BR FEW015 BECMG 2308/2310 7000 BECMG 2309/2311 25010KT BECMG 2318/2320 VRB05KT BECMG 2322/2324 4000 BR TEMPO 2401/2406 1200 BCFG BKN010

超过4000个机场的气象观测和天气预报(METAR&TAF报告)。

可查询的气象台以黄色和红色小点在地图上表示。

将鼠标移到小点上方,可查看气象台名称。

然后点击查看天气观测和预报。

如需切换地图:点击带黑十字的绿色按钮放大地图;点击带横线的绿色按钮缩小地图;或者点击绿色箭头查看邻近地区的地图。


METAR-TAF: